sensor_id;sensor_type;location;lat;lon;timestamp;P1;durP1;ratioP1;P2;durP2;ratioP2
74245;SDS011;62601;51.044;13.788;2023-04-06T00:00:01;7.00;;;5.25;;
74245;SDS011;62601;51.044;13.788;2023-04-06T00:02:21;6.53;;;5.32;;
74245;SDS011;62601;51.044;13.788;2023-04-06T00:04:41;6.10;;;5.50;;
74245;SDS011;62601;51.044;13.788;2023-04-06T00:07:01;5.85;;;5.10;;
74245;SDS011;62601;51.044;13.788;2023-04-06T00:09:21;7.53;;;5.85;;
74245;SDS011;62601;51.044;13.788;2023-04-06T00:11:42;7.00;;;6.03;;
74245;SDS011;62601;51.044;13.788;2023-04-06T00:14:02;8.25;;;5.85;;
74245;SDS011;62601;51.044;13.788;2023-04-06T00:16:22;6.30;;;5.50;;
74245;SDS011;62601;51.044;13.788;2023-04-06T00:18:42;9.15;;;5.60;;
74245;SDS011;62601;51.044;13.788;2023-04-06T00:21:02;8.75;;;5.70;;
74245;SDS011;62601;51.044;13.788;2023-04-06T00:23:23;5.00;;;4.38;;
74245;SDS011;62601;51.044;13.788;2023-04-06T00:25:43;5.50;;;5.00;;
74245;SDS011;62601;51.044;13.788;2023-04-06T00:28:03;7.43;;;5.28;;
74245;SDS011;62601;51.044;13.788;2023-04-06T00:30:23;7.72;;;6.20;;
74245;SDS011;62601;51.044;13.788;2023-04-06T00:32:43;8.93;;;6.07;;
74245;SDS011;62601;51.044;13.788;2023-04-06T00:35:03;7.75;;;5.70;;
74245;SDS011;62601;51.044;13.788;2023-04-06T00:37:24;6.82;;;5.68;;
74245;SDS011;62601;51.044;13.788;2023-04-06T00:39:44;8.05;;;5.60;;
74245;SDS011;62601;51.044;13.788;2023-04-06T00:42:13;9.15;;;5.30;;
74245;SDS011;62601;51.044;13.788;2023-04-06T00:44:33;6.70;;;5.28;;
74245;SDS011;62601;51.044;13.788;2023-04-06T00:46:53;8.00;;;5.75;;
74245;SDS011;62601;51.044;13.788;2023-04-06T00:49:13;7.07;;;4.93;;
74245;SDS011;62601;51.044;13.788;2023-04-06T00:51:34;6.85;;;5.22;;
74245;SDS011;62601;51.044;13.788;2023-04-06T00:53:54;9.27;;;5.57;;
74245;SDS011;62601;51.044;13.788;2023-04-06T00:56:14;8.38;;;5.40;;
74245;SDS011;62601;51.044;13.788;2023-04-06T00:58:34;8.82;;;5.40;;
74245;SDS011;62601;51.044;13.788;2023-04-06T01:00:54;8.55;;;5.53;;
74245;SDS011;62601;51.044;13.788;2023-04-06T01:03:14;6.68;;;5.30;;
74245;SDS011;62601;51.044;13.788;2023-04-06T01:05:34;7.20;;;4.80;;
74245;SDS011;62601;51.044;13.788;2023-04-06T01:07:54;7.68;;;4.72;;
74245;SDS011;62601;51.044;13.788;2023-04-06T01:10:28;8.25;;;5.35;;
74245;SDS011;62601;51.044;13.788;2023-04-06T01:12:48;7.57;;;5.60;;
74245;SDS011;62601;51.044;13.788;2023-04-06T01:15:08;9.55;;;5.30;;
74245;SDS011;62601;51.044;13.788;2023-04-06T01:17:29;7.82;;;4.50;;
74245;SDS011;62601;51.044;13.788;2023-04-06T01:19:49;7.55;;;4.90;;
74245;SDS011;62601;51.044;13.788;2023-04-06T01:22:13;7.60;;;4.85;;
74245;SDS011;62601;51.044;13.788;2023-04-06T01:24:33;5.90;;;5.03;;
74245;SDS011;62601;51.044;13.788;2023-04-06T01:26:53;8.13;;;4.90;;
74245;SDS011;62601;51.044;13.788;2023-04-06T01:29:13;6.53;;;5.00;;
74245;SDS011;62601;51.044;13.788;2023-04-06T01:31:33;7.55;;;5.38;;
74245;SDS011;62601;51.044;13.788;2023-04-06T01:33:53;8.00;;;5.38;;
74245;SDS011;62601;51.044;13.788;2023-04-06T01:36:14;5.80;;;4.55;;
74245;SDS011;62601;51.044;13.788;2023-04-06T01:38:34;6.97;;;5.30;;
74245;SDS011;62601;51.044;13.788;2023-04-06T01:40:54;6.88;;;5.18;;
74245;SDS011;62601;51.044;13.788;2023-04-06T01:43:14;6.75;;;5.50;;
74245;SDS011;62601;51.044;13.788;2023-04-06T01:45:34;5.55;;;4.55;;
74245;SDS011;62601;51.044;13.788;2023-04-06T01:47:54;7.15;;;5.35;;
74245;SDS011;62601;51.044;13.788;2023-04-06T01:50:14;10.07;;;5.82;;
74245;SDS011;62601;51.044;13.788;2023-04-06T01:52:34;5.40;;;4.80;;
74245;SDS011;62601;51.044;13.788;2023-04-06T01:54:54;7.55;;;4.90;;
74245;SDS011;62601;51.044;13.788;2023-04-06T01:57:15;8.55;;;5.57;;
74245;SDS011;62601;51.044;13.788;2023-04-06T01:59:35;6.90;;;5.28;;
74245;SDS011;62601;51.044;13.788;2023-04-06T02:01:55;9.65;;;5.50;;
74245;SDS011;62601;51.044;13.788;2023-04-06T02:04:15;7.13;;;5.32;;
74245;SDS011;62601;51.044;13.788;2023-04-06T02:06:35;5.75;;;4.60;;
74245;SDS011;62601;51.044;13.788;2023-04-06T02:08:55;8.13;;;5.60;;
74245;SDS011;62601;51.044;13.788;2023-04-06T02:11:15;7.03;;;5.20;;
74245;SDS011;62601;51.044;13.788;2023-04-06T02:13:35;9.73;;;5.07;;
74245;SDS011;62601;51.044;13.788;2023-04-06T02:15:55;8.75;;;5.70;;
74245;SDS011;62601;51.044;13.788;2023-04-06T02:18:15;7.28;;;5.38;;
74245;SDS011;62601;51.044;13.788;2023-04-06T02:20:35;6.68;;;5.70;;
74245;SDS011;62601;51.044;13.788;2023-04-06T02:22:56;6.70;;;5.80;;
74245;SDS011;62601;51.044;13.788;2023-04-06T02:25:16;8.85;;;5.22;;
74245;SDS011;62601;51.044;13.788;2023-04-06T02:27:36;8.73;;;5.88;;
74245;SDS011;62601;51.044;13.788;2023-04-06T02:29:56;7.60;;;5.22;;
74245;SDS011;62601;51.044;13.788;2023-04-06T02:32:17;7.90;;;4.57;;
74245;SDS011;62601;51.044;13.788;2023-04-06T02:34:37;7.10;;;5.35;;
74245;SDS011;62601;51.044;13.788;2023-04-06T02:36:57;7.60;;;5.47;;
74245;SDS011;62601;51.044;13.788;2023-04-06T02:39:17;8.00;;;5.57;;
74245;SDS011;62601;51.044;13.788;2023-04-06T02:41:37;7.38;;;5.72;;
74245;SDS011;62601;51.044;13.788;2023-04-06T02:43:57;10.10;;;5.35;;
74245;SDS011;62601;51.044;13.788;2023-04-06T02:46:17;16.05;;;5.50;;
74245;SDS011;62601;51.044;13.788;2023-04-06T02:48:37;7.40;;;6.00;;
74245;SDS011;62601;51.044;13.788;2023-04-06T02:50:57;7.00;;;5.55;;
74245;SDS011;62601;51.044;13.788;2023-04-06T02:53:17;6.78;;;5.45;;
74245;SDS011;62601;51.044;13.788;2023-04-06T02:55:37;7.78;;;5.15;;
74245;SDS011;62601;51.044;13.788;2023-04-06T02:57:57;7.65;;;6.13;;
74245;SDS011;62601;51.044;13.788;2023-04-06T03:00:18;9.32;;;5.45;;
74245;SDS011;62601;51.044;13.788;2023-04-06T03:02:38;6.15;;;5.55;;
74245;SDS011;62601;51.044;13.788;2023-04-06T03:04:58;9.35;;;5.13;;
74245;SDS011;62601;51.044;13.788;2023-04-06T03:07:18;5.63;;;5.05;;
74245;SDS011;62601;51.044;13.788;2023-04-06T03:09:38;7.15;;;4.93;;
74245;SDS011;62601;51.044;13.788;2023-04-06T03:11:58;7.35;;;6.43;;
74245;SDS011;62601;51.044;13.788;2023-04-06T03:14:18;8.40;;;5.50;;
74245;SDS011;62601;51.044;13.788;2023-04-06T03:16:38;11.70;;;5.50;;
74245;SDS011;62601;51.044;13.788;2023-04-06T03:18:58;9.50;;;5.45;;
74245;SDS011;62601;51.044;13.788;2023-04-06T03:21:19;6.43;;;5.55;;
74245;SDS011;62601;51.044;13.788;2023-04-06T03:23:39;5.97;;;5.38;;
74245;SDS011;62601;51.044;13.788;2023-04-06T03:25:59;7.05;;;5.35;;
74245;SDS011;62601;51.044;13.788;2023-04-06T03:28:19;6.40;;;5.75;;
74245;SDS011;62601;51.044;13.788;2023-04-06T03:30:39;11.73;;;5.75;;
74245;SDS011;62601;51.044;13.788;2023-04-06T03:32:59;8.30;;;6.10;;
74245;SDS011;62601;51.044;13.788;2023-04-06T03:35:19;7.85;;;5.43;;
74245;SDS011;62601;51.044;13.788;2023-04-06T03:37:39;7.20;;;5.80;;
74245;SDS011;62601;51.044;13.788;2023-04-06T03:39:59;14.35;;;6.65;;
74245;SDS011;62601;51.044;13.788;2023-04-06T03:42:19;6.82;;;5.95;;
74245;SDS011;62601;51.044;13.788;2023-04-06T03:44:39;7.25;;;5.82;;
74245;SDS011;62601;51.044;13.788;2023-04-06T03:46:59;7.55;;;6.38;;
74245;SDS011;62601;51.044;13.788;2023-04-06T03:49:20;8.68;;;6.03;;
74245;SDS011;62601;51.044;13.788;2023-04-06T03:51:40;11.05;;;6.65;;
74245;SDS011;62601;51.044;13.788;2023-04-06T03:54:00;7.15;;;5.78;;
74245;SDS011;62601;51.044;13.788;2023-04-06T03:56:20;8.75;;;5.80;;
74245;SDS011;62601;51.044;13.788;2023-04-06T03:58:40;7.22;;;5.47;;
74245;SDS011;62601;51.044;13.788;2023-04-06T04:01:00;6.15;;;5.55;;
74245;SDS011;62601;51.044;13.788;2023-04-06T04:03:20;7.40;;;5.07;;
74245;SDS011;62601;51.044;13.788;2023-04-06T04:05:40;10.60;;;6.50;;
74245;SDS011;62601;51.044;13.788;2023-04-06T04:08:00;7.55;;;5.75;;
74245;SDS011;62601;51.044;13.788;2023-04-06T04:10:20;7.68;;;6.03;;
74245;SDS011;62601;51.044;13.788;2023-04-06T04:12:40;10.13;;;6.40;;
74245;SDS011;62601;51.044;13.788;2023-04-06T04:15:01;11.30;;;8.10;;
74245;SDS011;62601;51.044;13.788;2023-04-06T04:17:21;9.27;;;6.63;;
74245;SDS011;62601;51.044;13.788;2023-04-06T04:19:41;8.38;;;5.70;;
74245;SDS011;62601;51.044;13.788;2023-04-06T04:22:01;6.22;;;4.60;;
74245;SDS011;62601;51.044;13.788;2023-04-06T04:24:21;6.22;;;5.03;;
74245;SDS011;62601;51.044;13.788;2023-04-06T04:26:41;7.93;;;5.28;;
74245;SDS011;62601;51.044;13.788;2023-04-06T04:29:01;8.27;;;6.13;;
74245;SDS011;62601;51.044;13.788;2023-04-06T04:31:21;8.38;;;5.47;;
74245;SDS011;62601;51.044;13.788;2023-04-06T04:33:41;7.70;;;6.13;;
74245;SDS011;62601;51.044;13.788;2023-04-06T04:36:02;10.60;;;6.53;;
74245;SDS011;62601;51.044;13.788;2023-04-06T04:38:22;11.93;;;6.07;;
74245;SDS011;62601;51.044;13.788;2023-04-06T04:40:42;6.93;;;5.22;;
74245;SDS011;62601;51.044;13.788;2023-04-06T04:43:02;8.05;;;6.82;;
74245;SDS011;62601;51.044;13.788;2023-04-06T04:45:22;9.50;;;6.32;;
74245;SDS011;62601;51.044;13.788;2023-04-06T04:47:42;8.32;;;6.53;;
74245;SDS011;62601;51.044;13.788;2023-04-06T04:50:02;12.32;;;6.50;;
74245;SDS011;62601;51.044;13.788;2023-04-06T04:52:22;8.88;;;6.40;;
74245;SDS011;62601;51.044;13.788;2023-04-06T04:54:43;8.93;;;6.13;;
74245;SDS011;62601;51.044;13.788;2023-04-06T04:57:03;9.60;;;6.38;;
74245;SDS011;62601;51.044;13.788;2023-04-06T04:59:23;7.80;;;6.00;;
74245;SDS011;62601;51.044;13.788;2023-04-06T05:01:43;9.82;;;6.57;;
74245;SDS011;62601;51.044;13.788;2023-04-06T05:04:03;9.05;;;6.82;;
74245;SDS011;62601;51.044;13.788;2023-04-06T05:06:23;8.88;;;6.50;;
74245;SDS011;62601;51.044;13.788;2023-04-06T05:08:43;9.23;;;7.03;;
74245;SDS011;62601;51.044;13.788;2023-04-06T05:11:03;10.05;;;6.88;;
74245;SDS011;62601;51.044;13.788;2023-04-06T05:13:23;10.00;;;6.97;;
74245;SDS011;62601;51.044;13.788;2023-04-06T05:15:43;10.68;;;6.78;;
74245;SDS011;62601;51.044;13.788;2023-04-06T05:18:04;8.43;;;6.00;;
74245;SDS011;62601;51.044;13.788;2023-04-06T05:20:24;11.05;;;6.85;;
74245;SDS011;62601;51.044;13.788;2023-04-06T05:22:44;9.75;;;7.05;;
74245;SDS011;62601;51.044;13.788;2023-04-06T05:25:04;10.50;;;7.45;;
74245;SDS011;62601;51.044;13.788;2023-04-06T05:27:25;11.40;;;6.38;;
74245;SDS011;62601;51.044;13.788;2023-04-06T05:29:45;9.60;;;6.93;;
74245;SDS011;62601;51.044;13.788;2023-04-06T05:32:05;7.35;;;6.47;;
74245;SDS011;62601;51.044;13.788;2023-04-06T05:34:25;9.65;;;6.22;;
74245;SDS011;62601;51.044;13.788;2023-04-06T05:36:45;7.72;;;6.10;;
74245;SDS011;62601;51.044;13.788;2023-04-06T05:39:05;13.07;;;7.03;;
74245;SDS011;62601;51.044;13.788;2023-04-06T05:41:25;12.52;;;6.70;;
74245;SDS011;62601;51.044;13.788;2023-04-06T05:43:45;13.60;;;7.10;;
74245;SDS011;62601;51.044;13.788;2023-04-06T05:46:05;13.63;;;6.93;;
74245;SDS011;62601;51.044;13.788;2023-04-06T05:48:26;9.75;;;6.38;;
74245;SDS011;62601;51.044;13.788;2023-04-06T05:50:49;10.50;;;6.35;;
74245;SDS011;62601;51.044;13.788;2023-04-06T05:53:09;10.43;;;6.78;;
74245;SDS011;62601;51.044;13.788;2023-04-06T05:55:29;14.07;;;6.88;;
74245;SDS011;62601;51.044;13.788;2023-04-06T05:57:49;7.68;;;5.82;;
74245;SDS011;62601;51.044;13.788;2023-04-06T06:00:10;10.10;;;6.80;;
74245;SDS011;62601;51.044;13.788;2023-04-06T06:02:30;9.15;;;6.43;;
74245;SDS011;62601;51.044;13.788;2023-04-06T06:04:50;11.20;;;7.13;;
74245;SDS011;62601;51.044;13.788;2023-04-06T06:07:10;13.55;;;7.57;;
74245;SDS011;62601;51.044;13.788;2023-04-06T06:09:30;16.42;;;7.43;;
74245;SDS011;62601;51.044;13.788;2023-04-06T06:11:51;9.25;;;6.60;;
74245;SDS011;62601;51.044;13.788;2023-04-06T06:14:11;12.02;;;7.22;;
74245;SDS011;62601;51.044;13.788;2023-04-06T06:16:31;13.38;;;7.00;;
74245;SDS011;62601;51.044;13.788;2023-04-06T06:18:51;10.07;;;7.75;;
74245;SDS011;62601;51.044;13.788;2023-04-06T06:21:11;8.55;;;6.35;;
74245;SDS011;62601;51.044;13.788;2023-04-06T06:23:31;10.32;;;7.15;;
74245;SDS011;62601;51.044;13.788;2023-04-06T06:25:51;9.18;;;6.57;;
74245;SDS011;62601;51.044;13.788;2023-04-06T06:28:11;11.85;;;6.95;;
74245;SDS011;62601;51.044;13.788;2023-04-06T06:30:31;12.82;;;8.25;;
74245;SDS011;62601;51.044;13.788;2023-04-06T06:32:51;8.90;;;7.10;;
74245;SDS011;62601;51.044;13.788;2023-04-06T06:35:12;9.80;;;7.13;;
74245;SDS011;62601;51.044;13.788;2023-04-06T06:37:32;11.68;;;8.00;;
74245;SDS011;62601;51.044;13.788;2023-04-06T06:39:52;10.48;;;7.90;;
74245;SDS011;62601;51.044;13.788;2023-04-06T06:42:12;10.50;;;6.85;;
74245;SDS011;62601;51.044;13.788;2023-04-06T06:44:32;9.77;;;7.00;;
74245;SDS011;62601;51.044;13.788;2023-04-06T06:46:52;9.40;;;7.18;;
74245;SDS011;62601;51.044;13.788;2023-04-06T06:49:12;9.43;;;7.18;;
74245;SDS011;62601;51.044;13.788;2023-04-06T06:51:32;12.60;;;7.55;;
74245;SDS011;62601;51.044;13.788;2023-04-06T06:53:52;12.30;;;7.40;;
74245;SDS011;62601;51.044;13.788;2023-04-06T06:56:12;13.25;;;8.23;;
74245;SDS011;62601;51.044;13.788;2023-04-06T06:58:32;10.63;;;8.15;;
74245;SDS011;62601;51.044;13.788;2023-04-06T07:00:59;11.63;;;7.15;;
74245;SDS011;62601;51.044;13.788;2023-04-06T07:03:19;16.20;;;8.30;;
74245;SDS011;62601;51.044;13.788;2023-04-06T07:05:45;7.75;;;6.55;;
74245;SDS011;62601;51.044;13.788;2023-04-06T07:08:05;8.13;;;6.78;;
74245;SDS011;62601;51.044;13.788;2023-04-06T07:10:26;10.90;;;6.80;;
74245;SDS011;62601;51.044;13.788;2023-04-06T07:12:46;10.90;;;7.13;;
74245;SDS011;62601;51.044;13.788;2023-04-06T07:15:06;12.38;;;7.43;;
74245;SDS011;62601;51.044;13.788;2023-04-06T07:17:26;11.27;;;7.00;;
74245;SDS011;62601;51.044;13.788;2023-04-06T07:19:47;12.20;;;7.70;;
74245;SDS011;62601;51.044;13.788;2023-04-06T07:22:07;12.18;;;6.97;;
74245;SDS011;62601;51.044;13.788;2023-04-06T07:24:27;12.82;;;8.43;;
74245;SDS011;62601;51.044;13.788;2023-04-06T07:26:47;10.80;;;6.72;;
74245;SDS011;62601;51.044;13.788;2023-04-06T07:29:07;10.80;;;7.45;;
74245;SDS011;62601;51.044;13.788;2023-04-06T07:31:27;12.85;;;7.93;;
74245;SDS011;62601;51.044;13.788;2023-04-06T07:33:47;11.05;;;7.70;;
74245;SDS011;62601;51.044;13.788;2023-04-06T07:36:07;9.30;;;7.10;;
74245;SDS011;62601;51.044;13.788;2023-04-06T07:38:27;8.25;;;6.82;;
74245;SDS011;62601;51.044;13.788;2023-04-06T07:40:47;16.73;;;11.20;;
74245;SDS011;62601;51.044;13.788;2023-04-06T07:43:08;11.60;;;8.07;;
74245;SDS011;62601;51.044;13.788;2023-04-06T07:45:28;12.40;;;8.65;;
74245;SDS011;62601;51.044;13.788;2023-04-06T07:47:48;13.60;;;10.15;;
74245;SDS011;62601;51.044;13.788;2023-04-06T07:50:08;11.00;;;7.90;;
74245;SDS011;62601;51.044;13.788;2023-04-06T07:52:28;7.90;;;6.93;;
74245;SDS011;62601;51.044;13.788;2023-04-06T07:54:48;10.82;;;7.03;;
74245;SDS011;62601;51.044;13.788;2023-04-06T07:57:09;9.38;;;6.45;;
74245;SDS011;62601;51.044;13.788;2023-04-06T07:59:29;10.35;;;7.35;;
74245;SDS011;62601;51.044;13.788;2023-04-06T08:01:49;9.77;;;6.60;;
74245;SDS011;62601;51.044;13.788;2023-04-06T08:04:09;13.15;;;6.50;;
74245;SDS011;62601;51.044;13.788;2023-04-06T08:06:29;11.38;;;7.68;;
74245;SDS011;62601;51.044;13.788;2023-04-06T08:08:49;9.40;;;7.40;;
74245;SDS011;62601;51.044;13.788;2023-04-06T08:11:09;9.18;;;6.68;;
74245;SDS011;62601;51.044;13.788;2023-04-06T08:13:29;10.45;;;7.57;;
74245;SDS011;62601;51.044;13.788;2023-04-06T08:15:49;8.55;;;7.25;;
74245;SDS011;62601;51.044;13.788;2023-04-06T08:18:09;10.15;;;6.43;;
74245;SDS011;62601;51.044;13.788;2023-04-06T08:20:29;10.05;;;6.10;;
74245;SDS011;62601;51.044;13.788;2023-04-06T08:22:50;9.00;;;6.75;;
74245;SDS011;62601;51.044;13.788;2023-04-06T08:25:10;8.23;;;6.40;;
74245;SDS011;62601;51.044;13.788;2023-04-06T08:27:30;8.07;;;6.90;;
74245;SDS011;62601;51.044;13.788;2023-04-06T08:29:50;9.88;;;6.97;;
74245;SDS011;62601;51.044;13.788;2023-04-06T08:32:10;7.68;;;6.18;;
74245;SDS011;62601;51.044;13.788;2023-04-06T08:34:31;8.52;;;7.00;;
74245;SDS011;62601;51.044;13.788;2023-04-06T08:36:51;9.93;;;6.70;;
74245;SDS011;62601;51.044;13.788;2023-04-06T08:39:11;8.80;;;7.43;;
74245;SDS011;62601;51.044;13.788;2023-04-06T08:41:32;8.85;;;6.53;;
74245;SDS011;62601;51.044;13.788;2023-04-06T08:43:54;8.63;;;6.30;;
74245;SDS011;62601;51.044;13.788;2023-04-06T08:46:17;7.00;;;5.22;;
74245;SDS011;62601;51.044;13.788;2023-04-06T08:48:38;7.18;;;5.90;;
74245;SDS011;62601;51.044;13.788;2023-04-06T08:50:58;6.75;;;5.40;;
74245;SDS011;62601;51.044;13.788;2023-04-06T08:53:18;6.43;;;5.80;;
74245;SDS011;62601;51.044;13.788;2023-04-06T08:55:38;6.55;;;5.18;;
74245;SDS011;62601;51.044;13.788;2023-04-06T08:57:59;6.78;;;5.78;;
74245;SDS011;62601;51.044;13.788;2023-04-06T09:00:20;8.20;;;5.43;;
74245;SDS011;62601;51.044;13.788;2023-04-06T09:02:42;5.40;;;4.90;;
74245;SDS011;62601;51.044;13.788;2023-04-06T09:05:02;5.20;;;4.70;;
74245;SDS011;62601;51.044;13.788;2023-04-06T09:07:22;5.75;;;4.97;;
74245;SDS011;62601;51.044;13.788;2023-04-06T09:09:43;7.45;;;5.07;;
74245;SDS011;62601;51.044;13.788;2023-04-06T09:12:03;8.07;;;5.65;;
74245;SDS011;62601;51.044;13.788;2023-04-06T09:14:33;7.25;;;5.78;;
74245;SDS011;62601;51.044;13.788;2023-04-06T09:16:53;7.25;;;5.10;;
74245;SDS011;62601;51.044;13.788;2023-04-06T09:19:13;8.18;;;4.72;;
74245;SDS011;62601;51.044;13.788;2023-04-06T09:21:33;6.07;;;5.03;;
74245;SDS011;62601;51.044;13.788;2023-04-06T09:24:00;6.82;;;5.55;;
74245;SDS011;62601;51.044;13.788;2023-04-06T09:26:21;6.07;;;5.35;;
74245;SDS011;62601;51.044;13.788;2023-04-06T09:28:45;5.95;;;5.35;;
74245;SDS011;62601;51.044;13.788;2023-04-06T09:31:06;7.45;;;5.93;;
74245;SDS011;62601;51.044;13.788;2023-04-06T09:33:26;6.68;;;5.28;;
74245;SDS011;62601;51.044;13.788;2023-04-06T09:35:49;10.40;;;5.18;;
74245;SDS011;62601;51.044;13.788;2023-04-06T09:38:12;10.43;;;6.47;;
74245;SDS011;62601;51.044;13.788;2023-04-06T09:40:32;5.07;;;4.68;;
74245;SDS011;62601;51.044;13.788;2023-04-06T09:42:52;5.22;;;4.60;;
74245;SDS011;62601;51.044;13.788;2023-04-06T09:45:12;7.93;;;4.88;;
74245;SDS011;62601;51.044;13.788;2023-04-06T09:47:33;6.05;;;4.55;;
74245;SDS011;62601;51.044;13.788;2023-04-06T09:49:56;5.82;;;5.20;;
74245;SDS011;62601;51.044;13.788;2023-04-06T09:52:16;6.78;;;5.43;;
74245;SDS011;62601;51.044;13.788;2023-04-06T09:54:37;7.43;;;4.65;;
74245;SDS011;62601;51.044;13.788;2023-04-06T09:57:03;5.30;;;4.80;;
74245;SDS011;62601;51.044;13.788;2023-04-06T09:59:26;4.90;;;4.50;;
74245;SDS011;62601;51.044;13.788;2023-04-06T10:01:49;5.25;;;4.47;;
74245;SDS011;62601;51.044;13.788;2023-04-06T10:04:13;5.13;;;4.70;;
74245;SDS011;62601;51.044;13.788;2023-04-06T10:06:37;7.43;;;5.28;;
74245;SDS011;62601;51.044;13.788;2023-04-06T10:08:58;5.95;;;4.90;;
74245;SDS011;62601;51.044;13.788;2023-04-06T10:11:19;6.65;;;5.70;;
74245;SDS011;62601;51.044;13.788;2023-04-06T10:13:39;6.03;;;5.20;;
74245;SDS011;62601;51.044;13.788;2023-04-06T10:15:59;6.13;;;4.50;;
74245;SDS011;62601;51.044;13.788;2023-04-06T10:18:20;5.05;;;4.55;;
74245;SDS011;62601;51.044;13.788;2023-04-06T10:20:42;5.28;;;4.88;;
74245;SDS011;62601;51.044;13.788;2023-04-06T10:23:08;6.40;;;5.15;;
74245;SDS011;62601;51.044;13.788;2023-04-06T10:25:30;5.32;;;4.82;;
74245;SDS011;62601;51.044;13.788;2023-04-06T10:27:58;5.32;;;4.63;;
74245;SDS011;62601;51.044;13.788;2023-04-06T10:30:18;5.20;;;4.25;;
74245;SDS011;62601;51.044;13.788;2023-04-06T10:32:38;6.32;;;4.80;;
74245;SDS011;62601;51.044;13.788;2023-04-06T10:35:05;4.88;;;4.40;;
74245;SDS011;62601;51.044;13.788;2023-04-06T10:37:25;6.50;;;5.90;;
74245;SDS011;62601;51.044;13.788;2023-04-06T10:39:55;4.70;;;4.25;;
74245;SDS011;62601;51.044;13.788;2023-04-06T10:42:15;5.20;;;4.25;;
74245;SDS011;62601;51.044;13.788;2023-04-06T10:44:41;5.45;;;4.68;;
74245;SDS011;62601;51.044;13.788;2023-04-06T10:47:01;4.90;;;4.50;;
74245;SDS011;62601;51.044;13.788;2023-04-06T10:49:21;4.78;;;4.38;;
74245;SDS011;62601;51.044;13.788;2023-04-06T10:51:41;4.68;;;3.95;;
74245;SDS011;62601;51.044;13.788;2023-04-06T10:54:02;5.47;;;4.90;;
74245;SDS011;62601;51.044;13.788;2023-04-06T10:56:24;7.97;;;5.97;;
74245;SDS011;62601;51.044;13.788;2023-04-06T10:58:45;8.55;;;6.47;;
74245;SDS011;62601;51.044;13.788;2023-04-06T11:01:05;4.80;;;4.32;;
74245;SDS011;62601;51.044;13.788;2023-04-06T11:03:25;4.70;;;4.30;;
74245;SDS011;62601;51.044;13.788;2023-04-06T11:05:46;4.45;;;4.13;;
74245;SDS011;62601;51.044;13.788;2023-04-06T11:08:06;4.53;;;4.00;;
74245;SDS011;62601;51.044;13.788;2023-04-06T11:10:27;6.55;;;4.35;;
74245;SDS011;62601;51.044;13.788;2023-04-06T11:12:51;5.18;;;4.30;;
74245;SDS011;62601;51.044;13.788;2023-04-06T11:15:11;8.05;;;5.38;;
74245;SDS011;62601;51.044;13.788;2023-04-06T11:17:35;9.50;;;5.55;;
74245;SDS011;62601;51.044;13.788;2023-04-06T11:19:55;8.55;;;5.57;;
74245;SDS011;62601;51.044;13.788;2023-04-06T11:22:15;4.50;;;4.05;;
74245;SDS011;62601;51.044;13.788;2023-04-06T11:24:35;5.97;;;5.28;;
74245;SDS011;62601;51.044;13.788;2023-04-06T11:26:56;4.75;;;4.35;;
74245;SDS011;62601;51.044;13.788;2023-04-06T11:29:17;4.70;;;4.30;;
74245;SDS011;62601;51.044;13.788;2023-04-06T11:31:39;5.93;;;4.22;;
74245;SDS011;62601;51.044;13.788;2023-04-06T11:33:59;5.20;;;4.60;;
74245;SDS011;62601;51.044;13.788;2023-04-06T11:36:19;6.15;;;4.10;;
74245;SDS011;62601;51.044;13.788;2023-04-06T11:38:39;4.40;;;4.00;;
74245;SDS011;62601;51.044;13.788;2023-04-06T11:41:00;10.13;;;4.75;;
74245;SDS011;62601;51.044;13.788;2023-04-06T11:43:29;9.27;;;4.40;;
74245;SDS011;62601;51.044;13.788;2023-04-06T11:45:50;5.68;;;5.00;;
74245;SDS011;62601;51.044;13.788;2023-04-06T11:48:19;4.85;;;4.22;;
74245;SDS011;62601;51.044;13.788;2023-04-06T11:50:39;6.70;;;5.15;;
74245;SDS011;62601;51.044;13.788;2023-04-06T11:53:00;5.22;;;4.15;;
74245;SDS011;62601;51.044;13.788;2023-04-06T11:55:20;5.40;;;4.90;;
74245;SDS011;62601;51.044;13.788;2023-04-06T11:57:41;5.00;;;4.60;;
74245;SDS011;62601;51.044;13.788;2023-04-06T12:00:01;6.35;;;4.65;;
74245;SDS011;62601;51.044;13.788;2023-04-06T12:02:21;5.93;;;4.93;;
74245;SDS011;62601;51.044;13.788;2023-04-06T12:04:41;5.60;;;5.18;;
74245;SDS011;62601;51.044;13.788;2023-04-06T12:07:02;6.10;;;4.70;;
74245;SDS011;62601;51.044;13.788;2023-04-06T12:09:22;5.05;;;4.55;;
74245;SDS011;62601;51.044;13.788;2023-04-06T12:11:42;5.18;;;4.30;;
74245;SDS011;62601;51.044;13.788;2023-04-06T12:14:03;6.38;;;5.78;;
74245;SDS011;62601;51.044;13.788;2023-04-06T12:16:23;4.97;;;4.43;;
74245;SDS011;62601;51.044;13.788;2023-04-06T12:18:43;6.30;;;5.40;;
74245;SDS011;62601;51.044;13.788;2023-04-06T12:21:03;3.90;;;3.60;;
74245;SDS011;62601;51.044;13.788;2023-04-06T12:23:23;4.27;;;3.87;;
74245;SDS011;62601;51.044;13.788;2023-04-06T12:25:43;4.53;;;4.13;;
74245;SDS011;62601;51.044;13.788;2023-04-06T12:28:03;5.50;;;4.37;;
74245;SDS011;62601;51.044;13.788;2023-04-06T12:30:23;4.87;;;4.33;;
74245;SDS011;62601;51.044;13.788;2023-04-06T12:32:43;4.73;;;4.13;;
74245;SDS011;62601;51.044;13.788;2023-04-06T12:35:04;4.50;;;4.10;;
74245;SDS011;62601;51.044;13.788;2023-04-06T12:37:24;5.03;;;4.63;;
74245;SDS011;62601;51.044;13.788;2023-04-06T12:39:44;4.07;;;3.77;;
74245;SDS011;62601;51.044;13.788;2023-04-06T12:42:04;4.10;;;3.80;;
74245;SDS011;62601;51.044;13.788;2023-04-06T12:44:24;5.27;;;4.77;;
74245;SDS011;62601;51.044;13.788;2023-04-06T12:46:44;6.53;;;5.83;;
74245;SDS011;62601;51.044;13.788;2023-04-06T12:49:04;4.23;;;3.83;;
74245;SDS011;62601;51.044;13.788;2023-04-06T12:51:27;4.83;;;4.43;;
74245;SDS011;62601;51.044;13.788;2023-04-06T12:53:47;4.33;;;3.93;;
74245;SDS011;62601;51.044;13.788;2023-04-06T12:56:11;3.93;;;3.30;;
74245;SDS011;62601;51.044;13.788;2023-04-06T12:58:31;4.90;;;4.23;;
74245;SDS011;62601;51.044;13.788;2023-04-06T13:00:52;11.23;;;4.00;;
74245;SDS011;62601;51.044;13.788;2023-04-06T13:03:12;4.73;;;4.33;;
74245;SDS011;62601;51.044;13.788;2023-04-06T13:05:32;4.87;;;4.40;;
74245;SDS011;62601;51.044;13.788;2023-04-06T13:07:52;4.03;;;3.73;;
74245;SDS011;62601;51.044;13.788;2023-04-06T13:10:12;4.53;;;4.13;;
74245;SDS011;62601;51.044;13.788;2023-04-06T13:12:32;4.87;;;4.50;;
74245;SDS011;62601;51.044;13.788;2023-04-06T13:14:52;5.03;;;4.53;;
74245;SDS011;62601;51.044;13.788;2023-04-06T13:17:12;6.33;;;5.70;;
74245;SDS011;62601;51.044;13.788;2023-04-06T13:19:32;4.90;;;4.40;;
74245;SDS011;62601;51.044;13.788;2023-04-06T13:21:52;4.80;;;4.37;;
74245;SDS011;62601;51.044;13.788;2023-04-06T13:24:13;6.67;;;4.93;;
74245;SDS011;62601;51.044;13.788;2023-04-06T13:26:33;5.17;;;4.77;;
74245;SDS011;62601;51.044;13.788;2023-04-06T13:28:53;5.50;;;5.03;;
74245;SDS011;62601;51.044;13.788;2023-04-06T13:31:13;5.80;;;5.40;;
74245;SDS011;62601;51.044;13.788;2023-04-06T13:33:33;5.40;;;5.03;;
74245;SDS011;62601;51.044;13.788;2023-04-06T13:35:54;6.30;;;5.70;;
74245;SDS011;62601;51.044;13.788;2023-04-06T13:38:14;6.33;;;4.83;;
74245;SDS011;62601;51.044;13.788;2023-04-06T13:40:34;4.67;;;4.30;;
74245;SDS011;62601;51.044;13.788;2023-04-06T13:42:54;4.30;;;3.90;;
74245;SDS011;62601;51.044;13.788;2023-04-06T13:45:14;4.90;;;4.20;;
74245;SDS011;62601;51.044;13.788;2023-04-06T13:47:34;4.30;;;4.00;;
74245;SDS011;62601;51.044;13.788;2023-04-06T13:49:54;3.90;;;3.60;;